Time;durP1;ratioP1;P1;durP2;ratioP2;P2;SDS_P1;SDS_P2;PMS_P1;PMS_P2;Temp;Humidity;BMP_temperature;BMP_pressure;BME280_temperature;BME280_humidity;BME280_pressure;Samples;Min_cycle;Max_cycle;Signal;HPM_P1;HPM_P2
2021/09/16 00:01:34;;;;;;;6.20;5.70;;;16.20;99.90;;;;;;5034150;28;20231;-66
2021/09/16 00:03:59;;;;;;;9.67;6.07;;;16.20;99.90;;;;;;5033408;28;20247;-66
2021/09/16 00:06:26;;;;;;;7.13;6.43;;;16.30;99.90;;;;;;5014584;28;20164;-65
2021/09/16 00:08:51;;;;;;;8.03;6.03;;;16.20;99.90;;;;;;5014339;28;20264;-66
2021/09/16 00:11:17;;;;;;;10.10;6.03;;;16.20;99.90;;;;;;5032671;28;20183;-65
2021/09/16 00:13:42;;;;;;;9.83;5.90;;;16.20;99.90;;;;;;5034210;28;20175;-65
2021/09/16 00:16:08;;;;;;;6.60;5.80;;;16.20;99.90;;;;;;5028092;28;20714;-66
2021/09/16 00:18:34;;;;;;;7.53;6.10;;;16.20;99.90;;;;;;5033992;28;20257;-66
2021/09/16 00:20:59;;;;;;;7.50;5.63;;;16.10;99.90;;;;;;5018198;28;20207;-65
2021/09/16 00:23:25;;;;;;;7.10;6.30;;;16.00;99.90;;;;;;5014211;28;20634;-65
2021/09/16 00:25:51;;;;;;;8.27;6.73;;;15.90;99.90;;;;;;5027750;28;20183;-64
2021/09/16 00:28:17;;;;;;;8.30;6.10;;;15.70;99.90;;;;;;5033588;28;20591;-65
2021/09/16 00:30:42;;;;;;;6.83;6.10;;;15.60;99.90;;;;;;5021431;28;20307;-66
2021/09/16 00:33:08;;;;;;;9.63;6.87;;;15.40;99.90;;;;;;5021889;28;20226;-66
2021/09/16 00:35:33;;;;;;;7.10;6.40;;;15.30;99.90;;;;;;5033848;28;20171;-65
2021/09/16 00:37:59;;;;;;;7.37;6.70;;;15.20;99.90;;;;;;5026991;28;20180;-67
2021/09/16 00:40:25;;;;;;;7.60;6.50;;;15.10;99.90;;;;;;5013841;28;20670;-64
2021/09/16 00:42:50;;;;;;;6.57;5.90;;;15.00;99.90;;;;;;5018535;28;20183;-64
2021/09/16 00:45:16;;;;;;;7.93;7.10;;;15.00;99.90;;;;;;5033505;28;20175;-65
2021/09/16 00:47:46;;;;;;;7.20;6.50;;;14.80;99.90;;;;;;5031893;28;20175;-65
2021/09/16 00:50:14;;;;;;;8.33;6.23;;;14.80;99.90;;;;;;5032393;28;20180;-64
2021/09/16 00:52:41;;;;;;;8.77;6.30;;;14.70;99.90;;;;;;5028295;28;20184;-65
2021/09/16 00:55:08;;;;;;;11.77;7.17;;;14.70;99.90;;;;;;5013568;28;20172;-64
2021/09/16 00:57:34;;;;;;;7.83;7.03;;;14.60;99.90;;;;;;5017012;28;20178;-65
2021/09/16 01:00:02;;;;;;;11.03;6.60;;;14.60;99.90;;;;;;5032842;28;20598;-64
2021/09/16 01:02:28;;;;;;;7.50;6.80;;;14.50;99.90;;;;;;5015708;28;20202;-65
2021/09/16 01:04:53;;;;;;;7.17;6.30;;;14.50;99.90;;;;;;5013564;28;20664;-66
2021/09/16 01:07:19;;;;;;;9.57;6.60;;;14.40;99.90;;;;;;5028560;28;20178;-64
2021/09/16 01:09:45;;;;;;;7.27;6.43;;;14.30;99.90;;;;;;5032666;28;20706;-64
2021/09/16 01:12:11;;;;;;;7.27;6.67;;;14.30;99.90;;;;;;5018882;28;20234;-64
2021/09/16 01:14:36;;;;;;;10.93;7.30;;;14.20;99.90;;;;;;5013150;28;20250;-64
2021/09/16 01:17:03;;;;;;;7.20;6.60;;;14.30;99.90;;;;;;5024999;28;20183;-65
2021/09/16 01:19:29;;;;;;;8.03;7.20;;;14.20;99.90;;;;;;5032557;28;20195;-65
2021/09/16 01:21:54;;;;;;;10.90;7.30;;;14.10;99.90;;;;;;5031132;28;20264;-64
2021/09/16 01:24:20;;;;;;;8.97;7.37;;;14.10;99.90;;;;;;5031979;28;20195;-65
2021/09/16 01:26:46;;;;;;;10.47;7.20;;;14.00;99.90;;;;;;5020236;28;20709;-65
2021/09/16 01:29:13;;;;;;;11.33;7.57;;;14.00;99.90;;;;;;5017489;28;20196;-66
2021/09/16 01:31:43;;;;;;;10.00;7.93;;;14.00;99.90;;;;;;5032683;28;20648;-65
2021/09/16 01:34:11;;;;;;;8.30;7.33;;;14.00;99.90;;;;;;5028186;28;20593;-65
2021/09/16 01:36:38;;;;;;;9.17;8.30;;;14.00;99.90;;;;;;5012795;28;20191;-65
2021/09/16 01:39:06;;;;;;;12.67;8.00;;;13.90;99.90;;;;;;5015593;28;20266;-65
2021/09/16 01:41:32;;;;;;;8.10;7.13;;;13.90;99.90;;;;;;5032205;28;20290;-66
2021/09/16 01:43:58;;;;;;;15.03;7.53;;;13.80;99.90;;;;;;5021894;28;20259;-65
2021/09/16 01:46:24;;;;;;;13.77;7.30;;;13.80;99.90;;;;;;5012440;28;20218;-64
2021/09/16 01:48:50;;;;;;;6.83;6.20;;;13.70;99.90;;;;;;5021057;28;20201;-64
2021/09/16 01:51:16;;;;;;;8.17;7.20;;;13.80;99.90;;;;;;5031944;28;20180;-65
2021/09/16 01:53:42;;;;;;;9.37;7.30;;;13.70;99.90;;;;;;5025100;28;20649;-64
2021/09/16 01:56:08;;;;;;;10.17;7.07;;;13.70;99.90;;;;;;5012324;28;20191;-64
2021/09/16 01:58:36;;;;;;;10.60;6.77;;;13.70;99.90;;;;;;5026530;28;20229;-65
2021/09/16 02:01:03;;;;;;;11.27;7.23;;;13.60;99.90;;;;;;5030968;28;20695;-64
2021/09/16 02:03:29;;;;;;;9.07;7.67;;;13.50;99.90;;;;;;5018820;28;20179;-65
2021/09/16 02:05:54;;;;;;;11.70;7.80;;;13.50;99.90;;;;;;5012389;28;20214;-65
2021/09/16 02:08:20;;;;;;;9.07;7.50;;;13.50;99.90;;;;;;5023136;28;20210;-65
2021/09/16 02:10:45;;;;;;;16.77;7.70;;;13.40;99.90;;;;;;5031721;28;20188;-64
2021/09/16 02:13:11;;;;;;;8.17;6.70;;;13.40;99.90;;;;;;5021911;28;20306;-66
2021/09/16 02:15:36;;;;;;;8.60;7.23;;;13.40;99.90;;;;;;5012160;28;20172;-65
2021/09/16 02:18:02;;;;;;;11.33;7.47;;;13.40;99.90;;;;;;5019763;28;20215;-66
2021/09/16 02:20:28;;;;;;;10.80;7.77;;;13.30;99.90;;;;;;5031326;28;20203;-65
2021/09/16 02:22:53;;;;;;;14.20;7.97;;;13.30;99.90;;;;;;5024384;28;20226;-66
2021/09/16 02:25:19;;;;;;;13.07;8.17;;;13.30;99.90;;;;;;5014270;28;20215;-64
2021/09/16 02:27:44;;;;;;;9.87;8.00;;;13.30;99.90;;;;;;5031774;28;20206;-65
2021/09/16 02:30:11;;;;;;;11.33;8.40;;;13.30;99.90;;;;;;5030151;28;20192;-64
2021/09/16 02:32:36;;;;;;;11.73;8.40;;;13.30;99.90;;;;;;5011954;28;20160;-65
2021/09/16 02:35:02;;;;;;;16.87;9.23;;;13.30;99.90;;;;;;5011929;28;20324;-65
2021/09/16 02:37:28;;;;;;;10.97;8.07;;;13.30;99.90;;;;;;5030519;28;20175;-65
2021/09/16 02:39:53;;;;;;;10.50;8.23;;;13.20;99.90;;;;;;5031607;28;20191;-64
2021/09/16 02:42:19;;;;;;;13.07;8.47;;;13.20;99.90;;;;;;5013978;28;20270;-63
2021/09/16 02:44:45;;;;;;;13.07;7.47;;;13.20;99.90;;;;;;5011829;28;20214;-64
2021/09/16 02:47:10;;;;;;;13.77;8.97;;;13.20;99.90;;;;;;5027131;28;20222;-64
2021/09/16 02:49:36;;;;;;;14.03;8.43;;;13.10;99.90;;;;;;5031281;28;20253;-63
2021/09/16 02:52:01;;;;;;;15.03;10.23;;;13.10;99.90;;;;;;5017107;28;20275;-65
2021/09/16 02:54:27;;;;;;;14.27;8.97;;;13.20;99.90;;;;;;5021582;28;20185;-64
2021/09/16 02:56:53;;;;;;;10.87;8.33;;;13.20;99.90;;;;;;5031593;28;20171;-64
2021/09/16 02:59:18;;;;;;;14.93;10.00;;;13.30;99.90;;;;;;5022621;28;20799;-65
2021/09/16 03:01:44;;;;;;;13.90;10.50;;;13.40;99.90;;;;;;5011672;28;20231;-65
2021/09/16 03:04:10;;;;;;;16.93;10.63;;;13.50;99.90;;;;;;5018154;28;20229;-63
2021/09/16 03:06:35;;;;;;;13.93;10.07;;;13.50;99.90;;;;;;5031518;28;20172;-63
2021/09/16 03:09:01;;;;;;;18.40;9.30;;;13.60;99.90;;;;;;5026107;28;20208;-64
2021/09/16 03:11:27;;;;;;;14.13;10.57;;;13.70;99.90;;;;;;5011516;28;20590;-65
2021/09/16 03:13:52;;;;;;;16.03;11.10;;;13.70;99.90;;;;;;5018503;28;20171;-64
2021/09/16 03:16:18;;;;;;;16.43;10.93;;;13.70;99.90;;;;;;5035173;28;20171;-63
2021/09/16 03:18:44;;;;;;;16.97;12.17;;;13.70;99.90;;;;;;5018548;28;20196;-64
2021/09/16 03:21:09;;;;;;;20.57;12.63;;;13.60;99.90;;;;;;5015843;28;20191;-64
2021/09/16 03:23:35;;;;;;;14.87;12.87;;;13.60;99.90;;;;;;5032469;28;20180;-65
2021/09/16 03:26:01;;;;;;;15.90;12.43;;;13.50;99.90;;;;;;5017504;28;20206;-63
2021/09/16 03:28:26;;;;;;;18.23;13.70;;;13.40;99.90;;;;;;5019037;28;20262;-64
2021/09/16 03:30:52;;;;;;;14.13;12.43;;;13.40;99.90;;;;;;5014993;28;20176;-65
2021/09/16 03:33:18;;;;;;;24.43;14.07;;;13.40;99.90;;;;;;5028953;28;20179;-64
2021/09/16 03:35:43;;;;;;;24.43;15.27;;;13.40;99.90;;;;;;5015558;28;20740;-65
2021/09/16 03:38:09;;;;;;;21.00;15.63;;;13.30;99.90;;;;;;5016378;28;20191;-64
2021/09/16 03:40:35;;;;;;;23.13;15.87;;;13.20;99.90;;;;;;5014722;28;20209;-64
2021/09/16 03:43:00;;;;;;;24.83;17.40;;;13.20;99.90;;;;;;5019475;28;20183;-64
2021/09/16 03:45:26;;;;;;;28.57;16.50;;;13.20;99.90;;;;;;4997390;28;20186;-65
2021/09/16 03:47:51;;;;;;;24.70;16.70;;;13.20;99.90;;;;;;5028467;28;20181;-64
2021/09/16 03:50:17;;;;;;;22.93;17.40;;;13.20;99.90;;;;;;5032559;28;20203;-64
2021/09/16 03:52:43;;;;;;;27.77;18.30;;;13.20;99.90;;;;;;5035949;28;20174;-63
2021/09/16 03:55:09;;;;;;;24.57;17.80;;;13.20;99.90;;;;;;5027747;28;20184;-63
2021/09/16 03:57:35;;;;;;;23.13;16.83;;;13.40;99.90;;;;;;5014819;28;20708;-63
2021/09/16 04:00:01;;;;;;;25.27;16.40;;;13.40;99.90;;;;;;5019407;28;20218;-63
2021/09/16 04:02:26;;;;;;;20.07;17.50;;;13.40;99.90;;;;;;5034182;28;20203;-63
2021/09/16 04:04:52;;;;;;;22.37;18.10;;;13.50;99.90;;;;;;5015460;28;20180;-63
2021/09/16 04:07:18;;;;;;;25.37;18.87;;;13.50;99.90;;;;;;5014771;28;20181;-63
2021/09/16 04:09:43;;;;;;;24.80;17.03;;;13.50;99.90;;;;;;5030901;28;20207;-63
2021/09/16 04:12:09;;;;;;;20.67;15.37;;;13.60;99.90;;;;;;5034012;28;20225;-63
2021/09/16 04:14:35;;;;;;;18.03;14.27;;;13.60;99.90;;;;;;5018862;28;20716;-65
2021/09/16 04:17:00;;;;;;;24.83;15.33;;;13.60;99.90;;;;;;5014453;28;20200;-63
2021/09/16 04:19:26;;;;;;;19.40;15.07;;;13.60;99.90;;;;;;5015224;28;20283;-63
2021/09/16 04:21:52;;;;;;;17.50;15.30;;;13.60;99.90;;;;;;5014214;28;20225;-63
2021/09/16 04:24:17;;;;;;;19.93;15.50;;;13.50;99.90;;;;;;5026647;28;20191;-64
2021/09/16 04:26:44;;;;;;;20.50;14.90;;;13.50;99.90;;;;;;5034036;28;20199;-64
2021/09/16 04:29:11;;;;;;;20.67;15.67;;;13.40;99.90;;;;;;5020790;28;20196;-64
2021/09/16 04:31:38;;;;;;;19.83;14.37;;;13.30;99.90;;;;;;5014005;28;20557;-63
2021/09/16 04:34:04;;;;;;;20.53;15.30;;;13.20;99.90;;;;;;5025290;28;20172;-63
2021/09/16 04:36:29;;;;;;;20.10;14.80;;;13.10;99.90;;;;;;5033860;28;20179;-63
2021/09/16 04:38:56;;;;;;;23.97;14.63;;;13.10;99.90;;;;;;5031115;28;20688;-63
2021/09/16 04:41:22;;;;;;;15.97;13.37;;;13.00;99.90;;;;;;5033238;28;20203;-63
2021/09/16 04:43:47;;;;;;;21.67;15.07;;;13.00;99.90;;;;;;5007626;28;20542;-65
2021/09/16 04:46:13;;;;;;;17.30;15.27;;;13.00;99.90;;;;;;5017973;28;20176;-63
2021/09/16 04:48:39;;;;;;;20.17;15.40;;;12.90;99.90;;;;;;5033685;28;20187;-63
2021/09/16 04:51:04;;;;;;;21.23;15.83;;;12.90;99.90;;;;;;5030509;28;20828;-63
2021/09/16 04:53:30;;;;;;;25.67;17.73;;;12.80;99.90;;;;;;5013830;28;20176;-64
2021/09/16 04:55:55;;;;;;;25.13;16.77;;;12.80;99.90;;;;;;5014565;28;20222;-63
2021/09/16 04:58:21;;;;;;;24.87;19.67;;;12.80;99.90;;;;;;5033118;28;20258;-63
2021/09/16 05:00:46;;;;;;;26.47;17.60;;;12.70;99.90;;;;;;5033072;28;20199;-63
2021/09/16 05:03:12;;;;;;;27.17;18.93;;;12.70;99.90;;;;;;5013983;28;20672;-65
2021/09/16 05:05:38;;;;;;;26.37;18.40;;;12.70;99.90;;;;;;4997150;28;20176;-65
2021/09/16 05:08:04;;;;;;;25.67;18.73;;;12.70;99.90;;;;;;5012902;28;20179;-65
2021/09/16 05:10:29;;;;;;;27.17;19.50;;;12.70;99.90;;;;;;5040194;22;20258;-65
2021/09/16 05:12:55;;;;;;;25.97;20.50;;;12.70;99.90;;;;;;5028806;28;20203;-64
2021/09/16 05:15:20;;;;;;;31.00;19.00;;;12.70;99.90;;;;;;5020740;28;20180;-63
2021/09/16 05:17:46;;;;;;;35.17;20.10;;;12.70;99.90;;;;;;5012306;28;20259;-64
2021/09/16 05:20:12;;;;;;;26.23;18.57;;;12.70;99.90;;;;;;5022327;28;20191;-67
2021/09/16 05:22:38;;;;;;;26.17;19.03;;;12.70;99.90;;;;;;5032957;28;20664;-65
2021/09/16 05:25:04;;;;;;;40.07;21.87;;;12.60;99.90;;;;;;5024044;28;20287;-65
2021/09/16 05:27:30;;;;;;;28.50;22.30;;;12.70;99.90;;;;;;5013123;28;20172;-65
2021/09/16 05:29:55;;;;;;;30.77;20.03;;;12.60;99.90;;;;;;5019146;28;20604;-64
2021/09/16 05:32:21;;;;;;;26.00;18.80;;;12.70;99.90;;;;;;5032441;28;20176;-64
2021/09/16 05:34:47;;;;;;;24.07;17.27;;;12.70;99.90;;;;;;5027198;28;20183;-63
2021/09/16 05:37:12;;;;;;;22.63;17.60;;;12.80;99.90;;;;;;5012772;28;20889;-64
2021/09/16 05:39:38;;;;;;;25.23;18.47;;;12.70;99.90;;;;;;5013691;28;20293;-64
2021/09/16 05:42:04;;;;;;;25.53;18.33;;;12.60;99.90;;;;;;5012635;28;20215;-64
2021/09/16 05:44:30;;;;;;;29.23;20.77;;;12.80;99.90;;;;;;5031863;28;20175;-64
2021/09/16 05:46:56;;;;;;;35.47;25.53;;;12.80;99.90;;;;;;5032543;28;20163;-64
2021/09/16 05:49:21;;;;;;;24.83;16.13;;;12.90;99.90;;;;;;5030489;28;20306;-64
2021/09/16 05:51:47;;;;;;;30.73;18.00;;;13.00;99.90;;;;;;5014577;28;20230;-64
2021/09/16 05:54:13;;;;;;;22.40;19.70;;;13.20;99.90;;;;;;5015993;28;20212;-64
2021/09/16 05:56:38;;;;;;;23.47;17.20;;;13.40;99.90;;;;;;5012557;28;20172;-64
2021/09/16 05:59:04;;;;;;;20.33;14.87;;;13.60;99.90;;;;;;5026667;28;20214;-64
2021/09/16 06:01:30;;;;;;;20.17;16.73;;;13.80;99.90;;;;;;5031838;28;20266;-63
2021/09/16 06:03:56;;;;;;;16.40;14.77;;;14.00;99.90;;;;;;5019274;28;20267;-64
2021/09/16 06:06:22;;;;;;;16.40;13.23;;;14.20;99.90;;;;;;5010368;28;20274;-63
2021/09/16 06:08:47;;;;;;;17.80;13.40;;;14.30;99.90;;;;;;5005227;28;20553;-65
2021/09/16 06:11:13;;;;;;;17.83;12.67;;;14.30;99.90;;;;;;5031703;28;20179;-64
2021/09/16 06:13:39;;;;;;;22.33;11.93;;;14.30;99.90;;;;;;5022511;28;20270;-64
2021/09/16 06:16:05;;;;;;;18.33;11.80;;;14.30;99.90;;;;;;5011978;28;20180;-64
2021/09/16 06:18:31;;;;;;;18.83;12.07;;;14.50;99.90;;;;;;5019482;28;20175;-64
2021/09/16 06:20:57;;;;;;;14.97;11.27;;;14.60;99.90;;;;;;5031374;28;20309;-64
2021/09/16 06:23:22;;;;;;;14.10;11.93;;;14.80;99.90;;;;;;5007803;28;20172;-64
2021/09/16 06:25:48;;;;;;;16.33;11.40;;;14.90;99.90;;;;;;5012062;28;20175;-64
2021/09/16 06:28:14;;;;;;;13.00;11.07;;;14.90;99.90;;;;;;5015814;28;20183;-64
2021/09/16 06:30:39;;;;;;;17.30;10.60;;;14.90;99.90;;;;;;5030637;28;20187;-63
2021/09/16 06:33:05;;;;;;;13.20;9.67;;;15.00;99.90;;;;;;5011811;28;20226;-64
2021/09/16 06:35:31;;;;;;;16.10;10.60;;;15.10;99.90;;;;;;5012043;28;20177;-64
2021/09/16 06:37:56;;;;;;;13.77;10.40;;;15.20;99.90;;;;;;5030176;28;20211;-64
2021/09/16 06:40:22;;;;;;;14.40;11.97;;;15.20;99.90;;;;;;5030923;28;20253;-64
2021/09/16 06:42:47;;;;;;;16.00;11.57;;;15.20;99.90;;;;;;5014791;28;20180;-64
2021/09/16 06:45:13;;;;;;;14.43;11.43;;;15.20;99.90;;;;;;5011668;28;20207;-64
2021/09/16 06:47:39;;;;;;;14.33;10.77;;;15.30;99.90;;;;;;5030218;28;20251;-63
2021/09/16 06:50:06;;;;;;;17.13;11.67;;;15.30;99.90;;;;;;5037673;28;20660;-63
2021/09/16 06:52:31;;;;;;;13.83;10.70;;;15.30;99.90;;;;;;5024516;28;20183;-64
2021/09/16 06:54:58;;;;;;;25.37;13.37;;;15.20;99.90;;;;;;5018274;28;20711;-64
2021/09/16 06:57:24;;;;;;;64.43;18.67;;;15.30;99.90;;;;;;5029498;28;20976;-65
2021/09/16 06:59:51;;;;;;;43.97;14.27;;;15.50;99.90;;;;;;5020071;28;20219;-65
2021/09/16 07:02:16;;;;;;;17.60;11.40;;;15.50;99.90;;;;;;5031900;28;20825;-64
2021/09/16 07:04:42;;;;;;;13.47;12.10;;;15.70;99.90;;;;;;5018136;28;20563;-64
2021/09/16 07:07:08;;;;;;;17.47;11.40;;;15.80;99.90;;;;;;5021816;28;20215;-65
2021/09/16 07:09:34;;;;;;;15.10;12.20;;;15.90;99.90;;;;;;5036803;28;20281;-65
2021/09/16 07:12:00;;;;;;;12.57;11.10;;;16.10;99.90;;;;;;5031354;28;20245;-64
2021/09/16 07:14:27;;;;;;;14.83;11.10;;;16.50;99.90;;;;;;5018039;28;20176;-65
2021/09/16 07:16:53;;;;;;;16.00;11.47;;;16.90;99.90;;;;;;5018052;28;20180;-65
2021/09/16 07:19:19;;;;;;;15.17;11.00;;;16.90;99.90;;;;;;5017743;28;20199;-65
2021/09/16 07:21:45;;;;;;;23.37;12.03;;;17.00;99.90;;;;;;5017790;28;20205;-65
2021/09/16 07:24:10;;;;;;;15.53;11.63;;;17.30;99.90;;;;;;5017855;28;20218;-64
2021/09/16 07:26:37;;;;;;;18.30;11.73;;;17.20;99.90;;;;;;5017918;28;20172;-64
2021/09/16 07:29:03;;;;;;;16.57;12.40;;;17.00;99.90;;;;;;5017056;28;20757;-65
2021/09/16 07:31:29;;;;;;;19.53;12.20;;;17.00;99.90;;;;;;4999920;28;20184;-65
2021/09/16 07:33:55;;;;;;;14.83;12.20;;;16.90;99.90;;;;;;5000092;28;20189;-64
2021/09/16 07:36:21;;;;;;;12.80;11.70;;;16.80;99.90;;;;;;5015937;28;20250;-64
2021/09/16 07:38:47;;;;;;;17.07;13.37;;;16.70;99.90;;;;;;5017411;28;20181;-65
2021/09/16 07:41:13;;;;;;;15.07;13.47;;;16.50;99.90;;;;;;5017286;28;20219;-65
2021/09/16 07:43:39;;;;;;;15.67;12.70;;;16.50;99.90;;;;;;5017840;28;20164;-64
2021/09/16 07:46:04;;;;;;;21.37;12.77;;;16.60;99.90;;;;;;5017716;28;20171;-65
2021/09/16 07:48:30;;;;;;;15.93;12.67;;;16.60;99.90;;;;;;5017643;28;20621;-65
2021/09/16 07:50:56;;;;;;;20.20;14.30;;;16.70;99.90;;;;;;5017407;28;20196;-65
2021/09/16 07:53:21;;;;;;;16.90;13.47;;;16.70;99.90;;;;;;5022675;28;20183;-65
2021/09/16 07:55:48;;;;;;;14.00;12.57;;;16.70;99.90;;;;;;5031412;28;20179;-65
2021/09/16 07:58:13;;;;;;;15.27;12.67;;;16.80;99.90;;;;;;5020205;28;20172;-65
2021/09/16 08:00:39;;;;;;;15.87;12.10;;;16.90;99.90;;;;;;5025197;28;20745;-65
2021/09/16 08:03:04;;;;;;;15.53;13.93;;;16.90;99.90;;;;;;5019472;28;20215;-65
2021/09/16 08:05:30;;;;;;;18.93;12.93;;;17.00;99.90;;;;;;5006516;28;20283;-65
2021/09/16 08:07:56;;;;;;;16.33;12.37;;;17.10;99.90;;;;;;5033997;28;20166;-65
2021/09/16 08:10:22;;;;;;;17.27;12.73;;;17.20;99.90;;;;;;5020723;28;20242;-65
2021/09/16 08:12:48;;;;;;;13.60;12.23;;;17.30;99.90;;;;;;5028043;28;20180;-65
2021/09/16 08:15:14;;;;;;;14.83;11.50;;;17.30;99.90;;;;;;5017390;28;20195;-64
2021/09/16 08:17:40;;;;;;;18.53;12.43;;;17.40;99.90;;;;;;5026297;28;20176;-65
2021/09/16 08:20:07;;;;;;;16.37;11.80;;;17.50;99.90;;;;;;5013802;28;20199;-64
2021/09/16 08:22:34;;;;;;;17.23;12.63;;;17.80;99.90;;;;;;5031300;28;20684;-65
2021/09/16 08:24:59;;;;;;;12.53;11.20;;;17.80;99.90;;;;;;5033889;28;20176;-64
2021/09/16 08:27:25;;;;;;;13.40;12.10;;;17.90;99.90;;;;;;4999906;28;20254;-64
2021/09/16 08:29:51;;;;;;;13.47;11.87;;;17.90;99.90;;;;;;5013835;28;20271;-64
2021/09/16 08:32:19;;;;;;;12.33;11.03;;;18.10;99.90;;;;;;5015062;28;20188;-65
2021/09/16 08:34:45;;;;;;;12.80;10.97;;;18.10;99.90;;;;;;5013822;28;20256;-64
2021/09/16 08:37:11;;;;;;;12.77;10.03;;;18.10;99.90;;;;;;5024425;28;20263;-64
2021/09/16 08:39:37;;;;;;;12.40;9.90;;;18.00;99.90;;;;;;5033367;28;20191;-65
2021/09/16 08:42:04;;;;;;;12.20;9.43;;;18.10;99.90;;;;;;5005002;28;20254;-64
2021/09/16 08:44:30;;;;;;;10.20;8.30;;;18.10;99.90;;;;;;5013811;28;20302;-65
2021/09/16 08:46:55;;;;;;;9.40;8.40;;;18.10;99.90;;;;;;5022288;28;20687;-65
2021/09/16 08:49:21;;;;;;;12.30;9.63;;;18.10;99.90;;;;;;5033078;28;20687;-65
2021/09/16 08:51:47;;;;;;;11.30;8.27;;;18.30;99.90;;;;;;5026433;28;20208;-66
2021/09/16 08:54:15;;;;;;;8.03;7.27;;;18.50;99.90;;;;;;5013639;28;20690;-65
2021/09/16 08:56:44;;;;;;;13.83;8.27;;;18.60;99.90;;;;;;5018773;28;20660;-65
2021/09/16 08:59:10;;;;;;;11.50;7.60;;;18.70;99.90;;;;;;5020607;28;20684;-64
2021/09/16 09:01:36;;;;;;;12.13;7.37;;;18.90;99.90;;;;;;5017246;28;20201;-64
2021/09/16 09:04:02;;;;;;;18.00;8.13;;;18.80;99.90;;;;;;5031749;28;20171;-65
2021/09/16 09:06:39;;;;;;;9.83;7.00;;;18.70;99.90;;;;;;5013233;28;20253;-65
2021/09/16 09:09:15;;;;;;;15.43;6.90;;;18.60;99.90;;;;;;5013803;28;20238;-66
2021/09/16 09:11:48;;;;;;;6.53;5.93;;;19.00;99.90;;;;;;5032662;28;20201;-66
2021/09/16 09:14:22;;;;;;;7.30;5.83;;;19.60;99.90;;;;;;5020515;28;20187;-65
2021/09/16 09:16:49;;;;;;;10.00;6.80;;;20.20;99.90;;;;;;5013263;28;20536;-66
2021/09/16 09:19:17;;;;;;;17.43;7.80;;;20.50;99.90;;;;;;5006576;28;20535;-64
2021/09/16 09:21:43;;;;;;;8.10;6.35;;;20.90;99.90;;;;;;5032796;28;20203;-66
2021/09/16 09:24:09;;;;;;;9.10;6.68;;;21.50;99.90;;;;;;5022204;28;20172;-65
2021/09/16 09:26:37;;;;;;;7.50;6.80;;;21.60;99.90;;;;;;5013053;28;20196;-66
2021/09/16 09:29:08;;;;;;;8.63;5.90;;;21.60;99.90;;;;;;5003746;28;20198;-65
2021/09/16 09:31:42;;;;;;;7.35;5.35;;;21.70;99.90;;;;;;5032347;28;20187;-65
2021/09/16 09:34:31;;;;;;;9.95;5.20;;;21.80;99.90;;;;;;5030820;28;20699;-66
2021/09/16 09:37:10;;;;;;;8.93;6.50;;;22.10;99.90;;;;;;5032602;28;20180;-65
2021/09/16 09:39:37;;;;;;;8.47;7.57;;;21.70;99.90;;;;;;5012553;28;20204;-66
2021/09/16 09:42:21;;;;;;;7.57;6.67;;;20.90;99.90;;;;;;5026131;28;20252;-66
2021/09/16 09:44:47;;;;;;;8.27;6.20;;;21.00;99.90;;;;;;5032393;28;20179;-65
2021/09/16 09:47:13;;;;;;;11.43;6.53;;;20.70;99.90;;;;;;5017451;28;20673;-66
2021/09/16 09:49:39;;;;;;;10.87;5.70;;;20.50;99.90;;;;;;5012267;28;20226;-65
2021/09/16 09:52:05;;;;;;;6.80;6.20;;;20.70;99.90;;;;;;5024912;28;20597;-65
2021/09/16 09:54:42;;;;;;;5.93;5.43;;;20.50;99.90;;;;;;5032146;28;20250;-65
2021/09/16 09:57:14;;;;;;;6.90;5.93;;;20.50;99.90;;;;;;5019382;28;20172;-66
2021/09/16 10:00:07;;;;;;;8.38;5.53;;;20.90;99.90;;;;;;5012102;28;20196;-66
2021/09/16 10:02:52;;;;;;;6.63;5.20;;;21.00;99.90;;;;;;5013258;28;20700;-66
2021/09/16 10:05:28;;;;;;;9.60;6.00;;;20.90;99.90;;;;;;5012311;28;20184;-65
2021/09/16 10:08:09;;;;;;;5.70;5.20;;;21.00;99.90;;;;;;4992896;28;20184;-65
2021/09/16 10:10:37;;;;;;;5.93;5.33;;;21.00;99.90;;;;;;4994308;28;20204;-66
2021/09/16 10:13:04;;;;;;;6.18;5.50;;;20.70;99.90;;;;;;5031936;28;20187;-65
2021/09/16 10:15:30;;;;;;;6.00;5.50;;;20.40;99.90;;;;;;5013998;28;20540;-65
2021/09/16 10:17:56;;;;;;;6.03;5.57;;;20.20;99.90;;;;;;5012237;28;20178;-66
2021/09/16 10:20:24;;;;;;;10.15;5.60;;;20.50;99.90;;;;;;5011719;28;20195;-66
2021/09/16 10:22:53;;;;;;;7.55;5.43;;;20.90;99.90;;;;;;5029477;28;20171;-66
2021/09/16 10:25:21;;;;;;;7.73;4.80;;;21.20;99.90;;;;;;5031634;28;20179;-65
2021/09/16 10:27:55;;;;;;;6.95;6.03;;;21.20;99.90;;;;;;5014311;28;20176;-65
2021/09/16 10:30:24;;;;;;;6.72;5.70;;;20.90;99.90;;;;;;5026138;28;20278;-65
2021/09/16 10:33:15;;;;;;;6.80;5.85;;;20.90;99.90;;;;;;5031599;28;20182;-65
2021/09/16 10:35:45;;;;;;;6.63;5.15;;;21.40;99.90;;;;;;5022049;28;20187;-66
2021/09/16 10:38:25;;;;;;;5.80;5.27;;;21.60;99.90;;;;;;5031522;28;20167;-65
2021/09/16 10:41:25;;;;;;;8.32;6.43;;;21.10;99.90;;;;;;5012985;28;20748;-65
2021/09/16 10:43:57;;;;;;;5.80;5.33;;;20.70;99.90;;;;;;5012829;28;20172;-65
2021/09/16 10:46:41;;;;;;;5.93;5.53;;;20.60;99.90;;;;;;5030715;28;20176;-65
2021/09/16 10:49:22;;;;;;;6.07;5.57;;;20.40;99.90;;;;;;5029925;28;20191;-66
2021/09/16 10:51:56;;;;;;;7.30;5.33;;;20.40;99.90;;;;;;5031581;28;20175;-64
2021/09/16 10:54:26;;;;;;;7.00;6.27;;;20.60;99.90;;;;;;5027166;28;20172;-65
2021/09/16 10:57:06;;;;;;;6.60;5.93;;;20.60;99.90;;;;;;5012532;28;20259;-65
2021/09/16 10:59:50;;;;;;;6.50;5.90;;;20.60;99.90;;;;;;5014796;28;20291;-65
2021/09/16 11:02:25;;;;;;;7.80;5.40;;;21.20;99.90;;;;;;5012578;28;20525;-65
2021/09/16 11:04:57;;;;;;;5.25;4.82;;;21.80;99.90;;;;;;5011668;28;20172;-66
2021/09/16 11:07:32;;;;;;;6.15;5.07;;;22.40;99.90;;;;;;5015378;28;20167;-65
2021/09/16 11:12:50;;;;;;;6.00;5.40;;;22.70;99.90;;;;;;5024611;28;20195;-64
2021/09/16 11:15:28;;;;;;;5.60;5.20;;;22.90;99.90;;;;;;5011728;28;20543;-64
2021/09/16 11:18:20;;;;;;;5.15;4.70;;;23.30;99.90;;;;;;5012749;28;20207;-65
2021/09/16 11:20:48;;;;;;;5.10;4.70;;;23.90;99.90;;;;;;5028701;28;20207;-65
2021/09/16 11:23:16;;;;;;;5.22;4.85;;;23.90;99.90;;;;;;5021841;28;20552;-65
2021/09/16 11:25:44;;;;;;;6.25;5.00;;;23.60;99.90;;;;;;5017256;28;20164;-65
2021/09/16 11:28:10;;;;;;;5.32;4.85;;;23.10;99.90;;;;;;5031239;28;20195;-65
2021/09/16 11:30:38;;;;;;;6.18;5.03;;;22.90;99.90;;;;;;5025933;28;20250;-65
2021/09/16 11:33:06;;;;;;;6.45;5.00;;;22.70;99.90;;;;;;5012401;28;20169;-66
2021/09/16 11:35:32;;;;;;;5.67;5.20;;;22.30;99.90;;;;;;5018478;28;20262;-65
2021/09/16 11:37:58;;;;;;;6.50;5.80;;;21.90;99.90;;;;;;5034973;28;20182;-66
2021/09/16 11:40:27;;;;;;;7.67;5.80;;;21.50;99.90;;;;;;5024218;28;20267;-65
2021/09/16 11:42:55;;;;;;;6.50;5.97;;;21.30;99.90;;;;;;5015068;28;20176;-65
2021/09/16 11:45:26;;;;;;;8.43;5.83;;;20.90;99.90;;;;;;5017804;28;20208;-65
2021/09/16 11:47:53;;;;;;;6.37;5.97;;;20.70;99.90;;;;;;5015176;28;20549;-65
2021/09/16 11:50:35;;;;;;;6.93;6.23;;;20.60;99.90;;;;;;5027094;28;20237;-64
2021/09/16 11:53:05;;;;;;;7.30;6.80;;;20.40;99.90;;;;;;5034669;28;20518;-65
2021/09/16 11:55:34;;;;;;;8.53;6.93;;;20.40;99.90;;;;;;5028838;28;20179;-65
2021/09/16 11:58:08;;;;;;;11.00;6.27;;;20.40;99.90;;;;;;5033291;28;20594;-65
2021/09/16 12:00:57;;;;;;;5.43;5.03;;;20.80;99.90;;;;;;5014759;28;20203;-65
2021/09/16 12:03:24;;;;;;;5.43;5.03;;;21.30;99.90;;;;;;5022487;28;20693;-66
2021/09/16 12:05:53;;;;;;;7.33;6.40;;;21.50;99.90;;;;;;5018603;28;20692;-64
2021/09/16 12:08:22;;;;;;;7.33;5.33;;;21.10;99.90;;;;;;5014507;28;20260;-64
2021/09/16 12:10:54;;;;;;;5.17;4.77;;;21.00;99.90;;;;;;5013846;28;20214;-65
2021/09/16 12:13:25;;;;;;;6.40;4.93;;;21.10;99.90;;;;;;5014457;28;20220;-65
2021/09/16 12:16:00;;;;;;;7.13;5.80;;;21.30;99.90;;;;;;5014418;28;20176;-65
2021/09/16 12:18:26;;;;;;;7.07;5.60;;;21.20;99.90;;;;;;5013506;28;20222;-65
2021/09/16 12:20:52;;;;;;;5.50;5.10;;;21.40;99.90;;;;;;5013755;28;20203;-64
2021/09/16 12:23:21;;;;;;;6.57;5.90;;;21.50;99.90;;;;;;5014225;28;20164;-65
2021/09/16 12:25:58;;;;;;;6.47;5.90;;;21.60;99.90;;;;;;5014226;28;20638;-65
2021/09/16 12:28:25;;;;;;;6.70;6.20;;;21.60;99.90;;;;;;5014645;28;20175;-65
2021/09/16 12:30:51;;;;;;;8.57;5.17;;;21.40;99.90;;;;;;5013842;28;20196;-65
2021/09/16 12:33:38;;;;;;;5.93;5.30;;;21.50;99.90;;;;;;5014179;28;20259;-65
2021/09/16 12:36:16;;;;;;;6.20;5.50;;;21.70;99.90;;;;;;5014146;28;20234;-64
2021/09/16 12:38:48;;;;;;;5.90;5.43;;;21.70;99.90;;;;;;5013832;28;20176;-65
2021/09/16 12:41:27;;;;;;;7.83;5.37;;;21.60;99.90;;;;;;5013444;28;20692;-64